Paraiba do Sul, Brazil
Current Conditions -  °F | °C
As of 3:00 PM on Thursday 30 Oct 2014 (Local Time) from SBGL Reporting Station
Few Clouds Few Clouds  
Wind Chill: 97°   Ceiling: Unl
Heat Index: 97°   Visibility: 6mi
Dew Point: 57°   Wind: 8mph
Humidity: 27%   Direction: 50°NE
Pressure: 29.74"   Gusts: NA
Location:  22.16°S, 43.29°W
Report Text: SBGL 301700Z 05007KT 9999 FEW025 36/14 Q1007
Loading
Personal Weather Stations






























Interactive Weather Map
Tropical Storm Tracking
New forecast layout! Learn more

10-Day Weather Forecast

Advertisements
Track Severe Weather on mobile